sensor_id;sensor_type;location;lat;lon;timestamp;P1;durP1;ratioP1;P2;durP2;ratioP2
65658;SDS011;60181;53.258;6.932;2024-02-26T00:01:51;8.20;;;3.50;;
65658;SDS011;60181;53.258;6.932;2024-02-26T00:06:04;8.20;;;3.50;;
65658;SDS011;60181;53.258;6.932;2024-02-26T00:10:15;6.30;;;3.40;;
65658;SDS011;60181;53.258;6.932;2024-02-26T00:14:27;6.30;;;3.40;;
65658;SDS011;60181;53.258;6.932;2024-02-26T00:18:39;6.30;;;3.40;;
65658;SDS011;60181;53.258;6.932;2024-02-26T00:22:52;7.10;;;3.20;;
65658;SDS011;60181;53.258;6.932;2024-02-26T00:27:04;7.10;;;3.20;;
65658;SDS011;60181;53.258;6.932;2024-02-26T00:31:15;6.50;;;3.40;;
65658;SDS011;60181;53.258;6.932;2024-02-26T00:35:27;6.50;;;3.40;;
65658;SDS011;60181;53.258;6.932;2024-02-26T00:39:39;7.20;;;3.20;;
65658;SDS011;60181;53.258;6.932;2024-02-26T00:43:52;7.20;;;3.20;;
65658;SDS011;60181;53.258;6.932;2024-02-26T00:48:04;7.20;;;3.20;;
65658;SDS011;60181;53.258;6.932;2024-02-26T00:52:15;5.00;;;3.20;;
65658;SDS011;60181;53.258;6.932;2024-02-26T00:56:27;5.00;;;3.20;;
65658;SDS011;60181;53.258;6.932;2024-02-26T01:00:39;6.10;;;3.50;;
65658;SDS011;60181;53.258;6.932;2024-02-26T01:04:52;6.10;;;3.50;;
65658;SDS011;60181;53.258;6.932;2024-02-26T01:09:03;5.10;;;3.10;;
65658;SDS011;60181;53.258;6.932;2024-02-26T01:13:15;5.10;;;3.10;;
65658;SDS011;60181;53.258;6.932;2024-02-26T01:17:27;5.10;;;3.10;;
65658;SDS011;60181;53.258;6.932;2024-02-26T01:21:39;5.90;;;3.20;;
65658;SDS011;60181;53.258;6.932;2024-02-26T01:25:51;5.90;;;3.20;;
65658;SDS011;60181;53.258;6.932;2024-02-26T01:30:04;5.10;;;2.70;;
65658;SDS011;60181;53.258;6.932;2024-02-26T01:34:15;5.10;;;2.70;;
65658;SDS011;60181;53.258;6.932;2024-02-26T01:38:27;5.10;;;2.70;;
65658;SDS011;60181;53.258;6.932;2024-02-26T01:42:39;5.50;;;2.90;;
65658;SDS011;60181;53.258;6.932;2024-02-26T01:46:51;5.50;;;2.90;;
65658;SDS011;60181;53.258;6.932;2024-02-26T01:51:03;7.10;;;2.80;;
65658;SDS011;60181;53.258;6.932;2024-02-26T01:55:15;7.10;;;2.80;;
65658;SDS011;60181;53.258;6.932;2024-02-26T01:59:27;4.80;;;2.70;;
65658;SDS011;60181;53.258;6.932;2024-02-26T02:03:39;4.80;;;2.70;;
65658;SDS011;60181;53.258;6.932;2024-02-26T02:07:51;4.80;;;2.70;;
65658;SDS011;60181;53.258;6.932;2024-02-26T02:12:03;4.50;;;2.70;;
65658;SDS011;60181;53.258;6.932;2024-02-26T02:16:15;4.50;;;2.70;;
65658;SDS011;60181;53.258;6.932;2024-02-26T02:20:33;4.90;;;2.70;;
65658;SDS011;60181;53.258;6.932;2024-02-26T02:24:39;4.90;;;2.70;;
65658;SDS011;60181;53.258;6.932;2024-02-26T02:28:51;4.90;;;2.70;;
65658;SDS011;60181;53.258;6.932;2024-02-26T02:33:04;5.60;;;2.60;;
65658;SDS011;60181;53.258;6.932;2024-02-26T02:37:15;5.60;;;2.60;;
65658;SDS011;60181;53.258;6.932;2024-02-26T02:41:27;3.20;;;2.10;;
65658;SDS011;60181;53.258;6.932;2024-02-26T02:45:39;3.20;;;2.10;;
65658;SDS011;60181;53.258;6.932;2024-02-26T02:49:51;3.70;;;2.20;;
65658;SDS011;60181;53.258;6.932;2024-02-26T02:54:03;3.70;;;2.20;;
65658;SDS011;60181;53.258;6.932;2024-02-26T02:58:15;3.70;;;2.20;;
65658;SDS011;60181;53.258;6.932;2024-02-26T03:02:27;4.00;;;2.20;;
65658;SDS011;60181;53.258;6.932;2024-02-26T03:06:39;4.00;;;2.20;;
65658;SDS011;60181;53.258;6.932;2024-02-26T03:10:51;3.50;;;2.20;;
65658;SDS011;60181;53.258;6.932;2024-02-26T03:15:03;3.50;;;2.20;;
65658;SDS011;60181;53.258;6.932;2024-02-26T03:19:15;3.50;;;2.30;;
65658;SDS011;60181;53.258;6.932;2024-02-26T03:23:27;3.50;;;2.30;;
65658;SDS011;60181;53.258;6.932;2024-02-26T03:27:39;3.50;;;2.30;;
65658;SDS011;60181;53.258;6.932;2024-02-26T03:31:51;3.20;;;1.70;;
65658;SDS011;60181;53.258;6.932;2024-02-26T03:36:04;3.20;;;1.70;;
65658;SDS011;60181;53.258;6.932;2024-02-26T03:40:15;3.60;;;1.90;;
65658;SDS011;60181;53.258;6.932;2024-02-26T03:44:27;3.60;;;1.90;;
65658;SDS011;60181;53.258;6.932;2024-02-26T03:48:40;3.60;;;1.90;;
65658;SDS011;60181;53.258;6.932;2024-02-26T03:52:51;2.30;;;1.70;;
65658;SDS011;60181;53.258;6.932;2024-02-26T03:57:03;2.30;;;1.70;;
65658;SDS011;60181;53.258;6.932;2024-02-26T04:01:15;2.60;;;1.70;;
65658;SDS011;60181;53.258;6.932;2024-02-26T04:05:27;2.60;;;1.70;;
65658;SDS011;60181;53.258;6.932;2024-02-26T04:09:39;3.70;;;1.60;;
65658;SDS011;60181;53.258;6.932;2024-02-26T04:13:51;3.70;;;1.60;;
65658;SDS011;60181;53.258;6.932;2024-02-26T04:18:03;3.70;;;1.60;;
65658;SDS011;60181;53.258;6.932;2024-02-26T04:22:15;3.10;;;1.50;;
65658;SDS011;60181;53.258;6.932;2024-02-26T04:26:27;3.10;;;1.50;;
65658;SDS011;60181;53.258;6.932;2024-02-26T04:30:39;2.40;;;1.50;;
65658;SDS011;60181;53.258;6.932;2024-02-26T04:34:51;2.40;;;1.50;;
65658;SDS011;60181;53.258;6.932;2024-02-26T04:39:03;1.60;;;1.30;;
65658;SDS011;60181;53.258;6.932;2024-02-26T04:43:15;1.60;;;1.30;;
65658;SDS011;60181;53.258;6.932;2024-02-26T04:47:27;1.60;;;1.30;;
65658;SDS011;60181;53.258;6.932;2024-02-26T04:51:39;2.70;;;1.30;;
65658;SDS011;60181;53.258;6.932;2024-02-26T04:55:51;2.70;;;1.30;;
65658;SDS011;60181;53.258;6.932;2024-02-26T05:00:04;7.40;;;1.40;;
65658;SDS011;60181;53.258;6.932;2024-02-26T05:04:15;7.40;;;1.40;;
65658;SDS011;60181;53.258;6.932;2024-02-26T05:08:27;7.40;;;1.40;;
65658;SDS011;60181;53.258;6.932;2024-02-26T05:12:39;5.60;;;1.50;;
65658;SDS011;60181;53.258;6.932;2024-02-26T05:16:51;5.60;;;1.50;;
65658;SDS011;60181;53.258;6.932;2024-02-26T05:21:03;2.60;;;1.30;;
65658;SDS011;60181;53.258;6.932;2024-02-26T05:25:15;2.60;;;1.30;;
65658;SDS011;60181;53.258;6.932;2024-02-26T05:29:27;3.30;;;1.30;;
65658;SDS011;60181;53.258;6.932;2024-02-26T05:33:39;3.30;;;1.30;;
65658;SDS011;60181;53.258;6.932;2024-02-26T05:37:51;3.30;;;1.30;;
65658;SDS011;60181;53.258;6.932;2024-02-26T05:42:03;5.40;;;1.20;;
65658;SDS011;60181;53.258;6.932;2024-02-26T05:46:18;5.40;;;1.20;;
65658;SDS011;60181;53.258;6.932;2024-02-26T05:50:27;3.20;;;1.10;;
65658;SDS011;60181;53.258;6.932;2024-02-26T05:54:39;3.20;;;1.10;;
65658;SDS011;60181;53.258;6.932;2024-02-26T05:58:51;3.20;;;1.10;;
65658;SDS011;60181;53.258;6.932;2024-02-26T06:03:03;2.70;;;1.00;;
65658;SDS011;60181;53.258;6.932;2024-02-26T06:07:15;2.70;;;1.00;;
65658;SDS011;60181;53.258;6.932;2024-02-26T06:11:27;3.80;;;1.00;;
65658;SDS011;60181;53.258;6.932;2024-02-26T06:15:39;3.80;;;1.00;;
65658;SDS011;60181;53.258;6.932;2024-02-26T06:19:51;2.70;;;1.10;;
65658;SDS011;60181;53.258;6.932;2024-02-26T06:24:03;2.70;;;1.10;;
65658;SDS011;60181;53.258;6.932;2024-02-26T06:28:15;2.70;;;1.10;;
65658;SDS011;60181;53.258;6.932;2024-02-26T06:32:27;7.20;;;1.30;;
65658;SDS011;60181;53.258;6.932;2024-02-26T06:36:39;7.20;;;1.30;;
65658;SDS011;60181;53.258;6.932;2024-02-26T06:40:51;5.50;;;1.30;;
65658;SDS011;60181;53.258;6.932;2024-02-26T06:45:04;5.50;;;1.30;;
65658;SDS011;60181;53.258;6.932;2024-02-26T06:49:15;7.70;;;1.00;;
65658;SDS011;60181;53.258;6.932;2024-02-26T06:53:27;7.70;;;1.00;;
65658;SDS011;60181;53.258;6.932;2024-02-26T06:57:39;7.70;;;1.00;;
65658;SDS011;60181;53.258;6.932;2024-02-26T07:01:51;4.00;;;1.10;;
65658;SDS011;60181;53.258;6.932;2024-02-26T07:06:03;4.00;;;1.10;;
65658;SDS011;60181;53.258;6.932;2024-02-26T07:10:15;4.40;;;1.10;;
65658;SDS011;60181;53.258;6.932;2024-02-26T07:14:27;4.40;;;1.10;;
65658;SDS011;60181;53.258;6.932;2024-02-26T07:18:39;4.40;;;1.10;;
65658;SDS011;60181;53.258;6.932;2024-02-26T07:22:51;3.00;;;1.00;;
65658;SDS011;60181;53.258;6.932;2024-02-26T07:27:03;3.00;;;1.00;;
65658;SDS011;60181;53.258;6.932;2024-02-26T07:31:15;3.60;;;1.10;;
65658;SDS011;60181;53.258;6.932;2024-02-26T07:35:27;3.60;;;1.10;;
65658;SDS011;60181;53.258;6.932;2024-02-26T07:39:39;2.30;;;0.90;;
65658;SDS011;60181;53.258;6.932;2024-02-26T07:43:51;2.30;;;0.90;;
65658;SDS011;60181;53.258;6.932;2024-02-26T07:48:03;2.30;;;0.90;;
65658;SDS011;60181;53.258;6.932;2024-02-26T07:52:15;1.30;;;0.80;;
65658;SDS011;60181;53.258;6.932;2024-02-26T07:56:27;1.30;;;0.80;;
65658;SDS011;60181;53.258;6.932;2024-02-26T08:00:39;2.40;;;0.70;;
65658;SDS011;60181;53.258;6.932;2024-02-26T08:04:51;2.40;;;0.70;;
65658;SDS011;60181;53.258;6.932;2024-02-26T08:09:03;5.00;;;0.80;;
65658;SDS011;60181;53.258;6.932;2024-02-26T08:13:15;5.00;;;0.80;;
65658;SDS011;60181;53.258;6.932;2024-02-26T08:17:27;5.00;;;0.80;;
65658;SDS011;60181;53.258;6.932;2024-02-26T08:21:39;0.90;;;0.80;;
65658;SDS011;60181;53.258;6.932;2024-02-26T08:25:51;0.90;;;0.80;;
65658;SDS011;60181;53.258;6.932;2024-02-26T08:30:03;1.10;;;0.70;;
65658;SDS011;60181;53.258;6.932;2024-02-26T08:34:15;1.10;;;0.70;;
65658;SDS011;60181;53.258;6.932;2024-02-26T08:38:27;1.10;;;0.70;;
65658;SDS011;60181;53.258;6.932;2024-02-26T08:42:39;1.40;;;0.80;;
65658;SDS011;60181;53.258;6.932;2024-02-26T08:46:51;1.40;;;0.80;;
65658;SDS011;60181;53.258;6.932;2024-02-26T08:51:06;1.80;;;0.70;;
65658;SDS011;60181;53.258;6.932;2024-02-26T08:55:15;1.80;;;0.70;;
65658;SDS011;60181;53.258;6.932;2024-02-26T08:59:27;1.40;;;0.70;;
65658;SDS011;60181;53.258;6.932;2024-02-26T09:03:39;1.40;;;0.70;;
65658;SDS011;60181;53.258;6.932;2024-02-26T09:07:51;1.40;;;0.70;;
65658;SDS011;60181;53.258;6.932;2024-02-26T09:12:03;0.90;;;0.80;;
65658;SDS011;60181;53.258;6.932;2024-02-26T09:16:15;0.90;;;0.80;;
65658;SDS011;60181;53.258;6.932;2024-02-26T09:20:27;1.30;;;0.70;;
65658;SDS011;60181;53.258;6.932;2024-02-26T09:24:39;1.30;;;0.70;;
65658;SDS011;60181;53.258;6.932;2024-02-26T09:28:51;1.30;;;0.70;;
65658;SDS011;60181;53.258;6.932;2024-02-26T09:33:03;1.40;;;0.70;;
65658;SDS011;60181;53.258;6.932;2024-02-26T09:37:15;1.40;;;0.70;;
65658;SDS011;60181;53.258;6.932;2024-02-26T09:41:30;1.90;;;0.70;;
65658;SDS011;60181;53.258;6.932;2024-02-26T09:45:39;1.90;;;0.70;;
65658;SDS011;60181;53.258;6.932;2024-02-26T09:49:51;1.30;;;0.70;;
65658;SDS011;60181;53.258;6.932;2024-02-26T09:54:03;1.30;;;0.70;;
65658;SDS011;60181;53.258;6.932;2024-02-26T09:58:15;1.30;;;0.70;;
65658;SDS011;60181;53.258;6.932;2024-02-26T10:02:27;1.10;;;0.70;;
65658;SDS011;60181;53.258;6.932;2024-02-26T10:06:39;1.10;;;0.70;;
65658;SDS011;60181;53.258;6.932;2024-02-26T10:10:51;1.60;;;0.70;;
65658;SDS011;60181;53.258;6.932;2024-02-26T10:15:03;1.60;;;0.70;;
65658;SDS011;60181;53.258;6.932;2024-02-26T10:23:27;0.80;;;0.60;;
65658;SDS011;60181;53.258;6.932;2024-02-26T10:27:42;0.80;;;0.60;;
65658;SDS011;60181;53.258;6.932;2024-02-26T10:31:51;1.00;;;0.70;;
65658;SDS011;60181;53.258;6.932;2024-02-26T10:36:03;1.00;;;0.70;;
65658;SDS011;60181;53.258;6.932;2024-02-26T10:40:15;1.70;;;0.60;;
65658;SDS011;60181;53.258;6.932;2024-02-26T10:44:27;1.70;;;0.60;;
65658;SDS011;60181;53.258;6.932;2024-02-26T10:48:39;1.70;;;0.60;;
65658;SDS011;60181;53.258;6.932;2024-02-26T10:52:51;1.90;;;0.70;;
65658;SDS011;60181;53.258;6.932;2024-02-26T10:57:03;1.90;;;0.70;;
65658;SDS011;60181;53.258;6.932;2024-02-26T11:01:15;1.40;;;0.50;;
65658;SDS011;60181;53.258;6.932;2024-02-26T11:05:27;1.40;;;0.50;;
65658;SDS011;60181;53.258;6.932;2024-02-26T11:09:39;1.90;;;0.60;;
65658;SDS011;60181;53.258;6.932;2024-02-26T11:13:51;1.90;;;0.60;;
65658;SDS011;60181;53.258;6.932;2024-02-26T11:18:03;1.90;;;0.60;;
65658;SDS011;60181;53.258;6.932;2024-02-26T11:22:15;1.00;;;0.60;;
65658;SDS011;60181;53.258;6.932;2024-02-26T11:26:27;1.00;;;0.60;;
65658;SDS011;60181;53.258;6.932;2024-02-26T11:30:39;1.00;;;0.60;;
65658;SDS011;60181;53.258;6.932;2024-02-26T11:34:51;1.00;;;0.60;;
65658;SDS011;60181;53.258;6.932;2024-02-26T11:39:03;0.90;;;0.60;;
65658;SDS011;60181;53.258;6.932;2024-02-26T11:43:15;0.90;;;0.60;;
65658;SDS011;60181;53.258;6.932;2024-02-26T11:47:27;0.90;;;0.60;;
65658;SDS011;60181;53.258;6.932;2024-02-26T11:51:39;0.70;;;0.50;;
65658;SDS011;60181;53.258;6.932;2024-02-26T12:00:12;0.90;;;0.70;;
65658;SDS011;60181;53.258;6.932;2024-02-26T12:04:18;0.90;;;0.70;;
65658;SDS011;60181;53.258;6.932;2024-02-26T12:08:27;0.90;;;0.70;;
65658;SDS011;60181;53.258;6.932;2024-02-26T12:12:39;0.80;;;0.70;;
65658;SDS011;60181;53.258;6.932;2024-02-26T12:16:51;0.80;;;0.70;;
65658;SDS011;60181;53.258;6.932;2024-02-26T12:21:03;2.30;;;0.90;;
65658;SDS011;60181;53.258;6.932;2024-02-26T12:25:15;2.30;;;0.90;;
65658;SDS011;60181;53.258;6.932;2024-02-26T12:29:26;3.90;;;1.30;;
65658;SDS011;60181;53.258;6.932;2024-02-26T12:33:38;3.90;;;1.30;;
65658;SDS011;60181;53.258;6.932;2024-02-26T12:37:52;3.90;;;1.30;;
65658;SDS011;60181;53.258;6.932;2024-02-26T12:42:03;7.40;;;1.70;;
65658;SDS011;60181;53.258;6.932;2024-02-26T12:46:15;7.40;;;1.70;;
65658;SDS011;60181;53.258;6.932;2024-02-26T12:50:26;3.80;;;1.60;;
65658;SDS011;60181;53.258;6.932;2024-02-26T12:54:39;3.80;;;1.60;;
65658;SDS011;60181;53.258;6.932;2024-02-26T12:58:51;3.80;;;1.60;;
65658;SDS011;60181;53.258;6.932;2024-02-26T13:03:03;4.60;;;1.70;;
65658;SDS011;60181;53.258;6.932;2024-02-26T13:07:14;4.60;;;1.70;;
65658;SDS011;60181;53.258;6.932;2024-02-26T13:11:27;3.10;;;1.80;;
65658;SDS011;60181;53.258;6.932;2024-02-26T13:15:38;3.10;;;1.80;;
65658;SDS011;60181;53.258;6.932;2024-02-26T13:19:50;4.40;;;1.80;;
65658;SDS011;60181;53.258;6.932;2024-02-26T13:24:03;4.40;;;1.80;;
65658;SDS011;60181;53.258;6.932;2024-02-26T13:28:15;4.40;;;1.80;;
65658;SDS011;60181;53.258;6.932;2024-02-26T13:32:26;6.20;;;2.30;;
65658;SDS011;60181;53.258;6.932;2024-02-26T13:36:38;6.20;;;2.30;;
65658;SDS011;60181;53.258;6.932;2024-02-26T13:40:51;9.20;;;2.50;;
65658;SDS011;60181;53.258;6.932;2024-02-26T13:45:03;9.20;;;2.50;;
65658;SDS011;60181;53.258;6.932;2024-02-26T13:49:14;7.20;;;2.70;;
65658;SDS011;60181;53.258;6.932;2024-02-26T13:53:26;7.20;;;2.70;;
65658;SDS011;60181;53.258;6.932;2024-02-26T13:57:38;7.20;;;2.70;;
65658;SDS011;60181;53.258;6.932;2024-02-26T14:01:50;6.00;;;2.40;;
65658;SDS011;60181;53.258;6.932;2024-02-26T14:06:03;6.00;;;2.40;;
65658;SDS011;60181;53.258;6.932;2024-02-26T14:10:14;9.70;;;2.70;;
65658;SDS011;60181;53.258;6.932;2024-02-26T14:14:29;9.70;;;2.70;;
65658;SDS011;60181;53.258;6.932;2024-02-26T14:18:38;9.70;;;2.70;;
65658;SDS011;60181;53.258;6.932;2024-02-26T14:22:51;7.80;;;2.80;;
65658;SDS011;60181;53.258;6.932;2024-02-26T14:27:03;7.80;;;2.80;;
65658;SDS011;60181;53.258;6.932;2024-02-26T14:31:17;8.40;;;2.50;;
65658;SDS011;60181;53.258;6.932;2024-02-26T14:35:26;8.40;;;2.50;;
65658;SDS011;60181;53.258;6.932;2024-02-26T14:39:38;7.60;;;2.30;;
65658;SDS011;60181;53.258;6.932;2024-02-26T14:43:50;7.60;;;2.30;;
65658;SDS011;60181;53.258;6.932;2024-02-26T14:48:02;7.60;;;2.30;;
65658;SDS011;60181;53.258;6.932;2024-02-26T14:52:14;5.90;;;2.20;;
65658;SDS011;60181;53.258;6.932;2024-02-26T14:56:26;5.90;;;2.20;;
65658;SDS011;60181;53.258;6.932;2024-02-26T15:00:38;7.60;;;2.30;;
65658;SDS011;60181;53.258;6.932;2024-02-26T15:04:50;7.60;;;2.30;;
65658;SDS011;60181;53.258;6.932;2024-02-26T15:09:02;8.40;;;2.50;;
65658;SDS011;60181;53.258;6.932;2024-02-26T15:13:14;8.40;;;2.50;;
65658;SDS011;60181;53.258;6.932;2024-02-26T15:17:27;8.40;;;2.50;;
65658;SDS011;60181;53.258;6.932;2024-02-26T15:21:45;7.60;;;2.50;;
65658;SDS011;60181;53.258;6.932;2024-02-26T15:25:50;7.60;;;2.50;;
65658;SDS011;60181;53.258;6.932;2024-02-26T15:30:03;6.20;;;2.60;;
65658;SDS011;60181;53.258;6.932;2024-02-26T15:34:14;6.20;;;2.60;;
65658;SDS011;60181;53.258;6.932;2024-02-26T15:38:26;6.20;;;2.60;;
65658;SDS011;60181;53.258;6.932;2024-02-26T15:42:38;5.50;;;2.80;;
65658;SDS011;60181;53.258;6.932;2024-02-26T15:46:50;5.50;;;2.80;;
65658;SDS011;60181;53.258;6.932;2024-02-26T15:51:02;5.10;;;2.30;;
65658;SDS011;60181;53.258;6.932;2024-02-26T15:55:14;5.10;;;2.30;;
65658;SDS011;60181;53.258;6.932;2024-02-26T15:59:26;5.40;;;2.30;;
65658;SDS011;60181;53.258;6.932;2024-02-26T16:03:38;5.40;;;2.30;;
65658;SDS011;60181;53.258;6.932;2024-02-26T16:07:54;5.40;;;2.30;;
65658;SDS011;60181;53.258;6.932;2024-02-26T16:12:14;5.20;;;2.40;;
65658;SDS011;60181;53.258;6.932;2024-02-26T16:16:16;5.20;;;2.40;;
65658;SDS011;60181;53.258;6.932;2024-02-26T16:20:26;7.10;;;2.60;;
65658;SDS011;60181;53.258;6.932;2024-02-26T16:24:38;7.10;;;2.60;;
65658;SDS011;60181;53.258;6.932;2024-02-26T16:28:50;7.10;;;2.60;;
65658;SDS011;60181;53.258;6.932;2024-02-26T16:33:02;4.90;;;2.30;;
65658;SDS011;60181;53.258;6.932;2024-02-26T16:37:14;4.90;;;2.30;;
65658;SDS011;60181;53.258;6.932;2024-02-26T16:41:26;6.90;;;2.80;;
65658;SDS011;60181;53.258;6.932;2024-02-26T16:45:38;6.90;;;2.80;;
65658;SDS011;60181;53.258;6.932;2024-02-26T16:49:50;5.50;;;2.50;;
65658;SDS011;60181;53.258;6.932;2024-02-26T16:54:02;5.50;;;2.50;;
65658;SDS011;60181;53.258;6.932;2024-02-26T16:58:14;5.50;;;2.50;;
65658;SDS011;60181;53.258;6.932;2024-02-26T17:02:26;5.70;;;2.40;;
65658;SDS011;60181;53.258;6.932;2024-02-26T17:06:38;5.70;;;2.40;;
65658;SDS011;60181;53.258;6.932;2024-02-26T17:10:50;7.40;;;2.60;;
65658;SDS011;60181;53.258;6.932;2024-02-26T17:15:02;7.40;;;2.60;;
65658;SDS011;60181;53.258;6.932;2024-02-26T17:19:14;5.20;;;2.30;;
65658;SDS011;60181;53.258;6.932;2024-02-26T17:23:26;5.20;;;2.30;;
65658;SDS011;60181;53.258;6.932;2024-02-26T17:27:38;5.20;;;2.30;;
65658;SDS011;60181;53.258;6.932;2024-02-26T17:31:50;6.30;;;2.30;;
65658;SDS011;60181;53.258;6.932;2024-02-26T17:36:02;6.30;;;2.30;;
65658;SDS011;60181;53.258;6.932;2024-02-26T17:40:14;6.00;;;2.60;;
65658;SDS011;60181;53.258;6.932;2024-02-26T17:44:36;6.00;;;2.60;;
65658;SDS011;60181;53.258;6.932;2024-02-26T17:48:38;6.00;;;2.60;;
65658;SDS011;60181;53.258;6.932;2024-02-26T17:52:50;6.30;;;2.60;;
65658;SDS011;60181;53.258;6.932;2024-02-26T17:57:02;6.30;;;2.60;;
65658;SDS011;60181;53.258;6.932;2024-02-26T18:01:14;5.50;;;2.20;;
65658;SDS011;60181;53.258;6.932;2024-02-26T18:05:26;5.50;;;2.20;;
65658;SDS011;60181;53.258;6.932;2024-02-26T18:09:38;6.40;;;2.60;;
65658;SDS011;60181;53.258;6.932;2024-02-26T18:13:50;6.40;;;2.60;;
65658;SDS011;60181;53.258;6.932;2024-02-26T18:18:02;6.40;;;2.60;;
65658;SDS011;60181;53.258;6.932;2024-02-26T18:22:14;4.30;;;2.40;;
65658;SDS011;60181;53.258;6.932;2024-02-26T18:26:26;4.30;;;2.40;;
65658;SDS011;60181;53.258;6.932;2024-02-26T18:30:38;5.30;;;2.40;;
65658;SDS011;60181;53.258;6.932;2024-02-26T18:34:50;5.30;;;2.40;;
65658;SDS011;60181;53.258;6.932;2024-02-26T18:39:02;5.00;;;2.30;;
65658;SDS011;60181;53.258;6.932;2024-02-26T18:43:14;5.00;;;2.30;;
65658;SDS011;60181;53.258;6.932;2024-02-26T18:47:26;5.00;;;2.30;;
65658;SDS011;60181;53.258;6.932;2024-02-26T18:51:38;4.50;;;2.40;;
65658;SDS011;60181;53.258;6.932;2024-02-26T18:55:50;4.50;;;2.40;;
65658;SDS011;60181;53.258;6.932;2024-02-26T19:00:02;5.60;;;2.40;;
65658;SDS011;60181;53.258;6.932;2024-02-26T19:04:14;5.60;;;2.40;;
65658;SDS011;60181;53.258;6.932;2024-02-26T19:08:26;5.60;;;2.40;;
65658;SDS011;60181;53.258;6.932;2024-02-26T19:12:38;3.50;;;2.10;;
65658;SDS011;60181;53.258;6.932;2024-02-26T19:16:50;3.50;;;2.10;;
65658;SDS011;60181;53.258;6.932;2024-02-26T19:21:02;3.30;;;1.90;;
65658;SDS011;60181;53.258;6.932;2024-02-26T19:25:14;3.30;;;1.90;;
65658;SDS011;60181;53.258;6.932;2024-02-26T19:29:26;4.10;;;2.00;;
65658;SDS011;60181;53.258;6.932;2024-02-26T19:33:38;4.10;;;2.00;;
65658;SDS011;60181;53.258;6.932;2024-02-26T19:37:50;4.10;;;2.00;;
65658;SDS011;60181;53.258;6.932;2024-02-26T19:42:02;3.50;;;1.80;;
65658;SDS011;60181;53.258;6.932;2024-02-26T19:46:14;3.50;;;1.80;;
65658;SDS011;60181;53.258;6.932;2024-02-26T19:50:26;4.70;;;1.80;;
65658;SDS011;60181;53.258;6.932;2024-02-26T19:54:38;4.70;;;1.80;;
65658;SDS011;60181;53.258;6.932;2024-02-26T19:58:50;4.70;;;1.80;;
65658;SDS011;60181;53.258;6.932;2024-02-26T20:03:02;2.90;;;1.70;;
65658;SDS011;60181;53.258;6.932;2024-02-26T20:07:14;2.90;;;1.70;;
65658;SDS011;60181;53.258;6.932;2024-02-26T20:11:26;3.10;;;1.80;;
65658;SDS011;60181;53.258;6.932;2024-02-26T20:15:38;3.10;;;1.80;;
65658;SDS011;60181;53.258;6.932;2024-02-26T20:19:50;4.20;;;1.80;;
65658;SDS011;60181;53.258;6.932;2024-02-26T20:24:02;4.20;;;1.80;;
65658;SDS011;60181;53.258;6.932;2024-02-26T20:28:14;4.20;;;1.80;;
65658;SDS011;60181;53.258;6.932;2024-02-26T20:32:26;2.60;;;1.50;;
65658;SDS011;60181;53.258;6.932;2024-02-26T20:36:38;2.60;;;1.50;;
65658;SDS011;60181;53.258;6.932;2024-02-26T20:40:50;2.50;;;1.40;;
65658;SDS011;60181;53.258;6.932;2024-02-26T20:45:02;2.50;;;1.40;;
65658;SDS011;60181;53.258;6.932;2024-02-26T20:49:14;3.40;;;1.40;;
65658;SDS011;60181;53.258;6.932;2024-02-26T20:53:26;3.40;;;1.40;;
65658;SDS011;60181;53.258;6.932;2024-02-26T20:57:38;3.40;;;1.40;;
65658;SDS011;60181;53.258;6.932;2024-02-26T21:01:50;3.60;;;1.50;;
65658;SDS011;60181;53.258;6.932;2024-02-26T21:06:02;3.60;;;1.50;;
65658;SDS011;60181;53.258;6.932;2024-02-26T21:10:14;3.10;;;1.70;;
65658;SDS011;60181;53.258;6.932;2024-02-26T21:14:26;3.10;;;1.70;;
65658;SDS011;60181;53.258;6.932;2024-02-26T21:18:38;3.10;;;1.70;;
65658;SDS011;60181;53.258;6.932;2024-02-26T21:22:50;2.00;;;1.20;;
65658;SDS011;60181;53.258;6.932;2024-02-26T21:27:02;2.00;;;1.20;;
65658;SDS011;60181;53.258;6.932;2024-02-26T21:31:14;7.50;;;1.40;;
65658;SDS011;60181;53.258;6.932;2024-02-26T21:35:26;7.50;;;1.40;;
65658;SDS011;60181;53.258;6.932;2024-02-26T21:39:38;3.90;;;1.20;;
65658;SDS011;60181;53.258;6.932;2024-02-26T21:43:50;3.90;;;1.20;;
65658;SDS011;60181;53.258;6.932;2024-02-26T21:48:02;3.90;;;1.20;;
65658;SDS011;60181;53.258;6.932;2024-02-26T21:52:14;4.50;;;1.10;;
65658;SDS011;60181;53.258;6.932;2024-02-26T21:56:26;4.50;;;1.10;;
65658;SDS011;60181;53.258;6.932;2024-02-26T22:00:38;6.40;;;1.30;;
65658;SDS011;60181;53.258;6.932;2024-02-26T22:04:51;6.40;;;1.30;;
65658;SDS011;60181;53.258;6.932;2024-02-26T22:09:02;2.60;;;1.10;;
65658;SDS011;60181;53.258;6.932;2024-02-26T22:13:14;2.60;;;1.10;;
65658;SDS011;60181;53.258;6.932;2024-02-26T22:17:27;2.60;;;1.10;;
65658;SDS011;60181;53.258;6.932;2024-02-26T22:21:38;4.50;;;1.30;;
65658;SDS011;60181;53.258;6.932;2024-02-26T22:25:50;4.50;;;1.30;;
65658;SDS011;60181;53.258;6.932;2024-02-26T22:30:02;3.10;;;1.10;;
65658;SDS011;60181;53.258;6.932;2024-02-26T22:34:14;3.10;;;1.10;;
65658;SDS011;60181;53.258;6.932;2024-02-26T22:38:26;3.10;;;1.10;;
65658;SDS011;60181;53.258;6.932;2024-02-26T22:42:38;3.20;;;1.30;;
65658;SDS011;60181;53.258;6.932;2024-02-26T22:46:50;3.20;;;1.30;;
65658;SDS011;60181;53.258;6.932;2024-02-26T22:51:02;1.90;;;1.00;;
65658;SDS011;60181;53.258;6.932;2024-02-26T22:55:14;1.90;;;1.00;;
65658;SDS011;60181;53.258;6.932;2024-02-26T22:59:26;2.80;;;1.20;;
65658;SDS011;60181;53.258;6.932;2024-02-26T23:03:38;2.80;;;1.20;;
65658;SDS011;60181;53.258;6.932;2024-02-26T23:07:50;2.80;;;1.20;;
65658;SDS011;60181;53.258;6.932;2024-02-26T23:12:02;3.00;;;1.00;;
65658;SDS011;60181;53.258;6.932;2024-02-26T23:16:14;3.00;;;1.00;;
65658;SDS011;60181;53.258;6.932;2024-02-26T23:20:26;3.80;;;1.00;;
65658;SDS011;60181;53.258;6.932;2024-02-26T23:24:38;3.80;;;1.00;;
65658;SDS011;60181;53.258;6.932;2024-02-26T23:28:50;3.80;;;1.00;;
65658;SDS011;60181;53.258;6.932;2024-02-26T23:33:02;1.90;;;1.10;;
65658;SDS011;60181;53.258;6.932;2024-02-26T23:37:14;1.90;;;1.10;;
65658;SDS011;60181;53.258;6.932;2024-02-26T23:41:26;1.80;;;1.00;;
65658;SDS011;60181;53.258;6.932;2024-02-26T23:45:38;1.80;;;1.00;;
65658;SDS011;60181;53.258;6.932;2024-02-26T23:49:50;2.40;;;1.10;;
65658;SDS011;60181;53.258;6.932;2024-02-26T23:54:02;2.40;;;1.10;;
65658;SDS011;60181;53.258;6.932;2024-02-26T23:58:14;2.40;;;1.10;;
